createdAt,value
2017-12-28T00:02:15.114Z,79.03
2017-12-28T00:04:44.970Z,79.07
2017-12-28T00:07:15.143Z,79.99
2017-12-28T00:09:45.076Z,79.23
2017-12-28T00:12:15.306Z,79.19
2017-12-28T00:14:45.228Z,79.29
2017-12-28T00:17:15.752Z,79.05
2017-12-28T00:19:45.797Z,78.59
2017-12-28T00:22:16.769Z,78.55
2017-12-28T00:24:46.622Z,79.45
2017-12-28T00:27:16.651Z,79.34
2017-12-28T00:29:48.667Z,78.97
2017-12-28T00:32:21.106Z,78.97
2017-12-28T00:34:51.516Z,79.41
2017-12-28T00:37:22.308Z,80.62
2017-12-28T00:39:52.297Z,80.17
2017-12-28T00:42:23.751Z,79.12
2017-12-28T00:44:53.537Z,78.60
2017-12-28T00:47:24.559Z,79.78
2017-12-28T00:49:55.048Z,79.17
2017-12-28T00:52:25.573Z,79.69
2017-12-28T00:54:57.184Z,80.80
2017-12-28T00:57:28.475Z,80.58
2017-12-28T01:00:02.349Z,80.53
2017-12-28T01:02:32.355Z,84.16
2017-12-28T01:05:02.911Z,85.12
2017-12-28T01:07:32.671Z,85.84
2017-12-28T01:10:02.454Z,82.47
2017-12-28T01:12:32.516Z,83.81
2017-12-28T01:15:03.664Z,84.19
2017-12-28T01:17:34.027Z,84.83
2017-12-28T01:20:03.944Z,84.67
2017-12-28T01:22:33.718Z,83.86
2017-12-28T01:25:04.159Z,85.32
2017-12-28T01:27:35.171Z,85.75
2017-12-28T01:30:06.634Z,86.71
2017-12-28T01:32:38.110Z,85.16
2017-12-28T01:35:08.567Z,85.50
2017-12-28T01:37:38.646Z,83.14
2017-12-28T01:40:09.074Z,82.49
2017-12-28T01:42:39.405Z,83.56
2017-12-28T01:45:10.357Z,81.91
2017-12-28T01:47:49.251Z,81.53
2017-12-28T01:50:19.445Z,81.13
2017-12-28T01:52:49.779Z,80.65
2017-12-28T01:55:19.883Z,80.65
2017-12-28T01:57:50.223Z,80.86
2017-12-28T02:00:23.127Z,81.54
2017-12-28T02:02:53.424Z,81.46
2017-12-28T02:05:24.195Z,82.25
2017-12-28T02:07:55.069Z,82.82
2017-12-28T02:10:26.339Z,84.16
2017-12-28T02:12:56.549Z,83.65
2017-12-28T02:15:26.199Z,82.91
2017-12-28T02:17:55.908Z,81.88
2017-12-28T02:20:28.459Z,82.10
2017-12-28T02:22:58.369Z,81.40
2017-12-28T02:25:28.038Z,82.32
2017-12-28T02:27:57.992Z,82.02
2017-12-28T02:30:27.969Z,82.34
2017-12-28T02:32:58.003Z,81.07
2017-12-28T02:35:28.185Z,80.80
2017-12-28T02:37:57.732Z,79.94
2017-12-28T02:40:27.462Z,80.13
2017-12-28T02:42:57.775Z,81.44
2017-12-28T02:45:27.458Z,79.99
2017-12-28T02:47:57.144Z,79.59
2017-12-28T02:50:27.362Z,79.78
2017-12-28T02:52:57.205Z,80.79
2017-12-28T02:55:26.866Z,81.89
2017-12-28T02:57:59.105Z,80.70
2017-12-28T03:00:31.008Z,81.49
2017-12-28T03:03:00.707Z,80.81
2017-12-28T03:05:30.763Z,81.53
2017-12-28T03:08:00.909Z,80.43
2017-12-28T03:10:33.460Z,81.73
2017-12-28T03:13:03.670Z,81.74
2017-12-28T03:15:33.269Z,83.26
2017-12-28T03:18:02.883Z,81.08
2017-12-28T03:20:32.897Z,81.15
2017-12-28T03:23:02.733Z,81.54
2017-12-28T03:25:32.290Z,81.38
2017-12-28T03:28:02.277Z,81.47
2017-12-28T03:30:32.270Z,81.87
2017-12-28T03:33:01.954Z,80.71
2017-12-28T03:35:32.221Z,80.66
2017-12-28T03:38:02.105Z,82.13
2017-12-28T03:40:31.878Z,82.20
2017-12-28T03:43:02.116Z,81.50
2017-12-28T03:45:31.590Z,81.15
2017-12-28T03:48:01.277Z,81.47
2017-12-28T03:50:31.037Z,83.70
2017-12-28T03:53:00.933Z,81.60
2017-12-28T03:55:30.677Z,82.65
2017-12-28T03:58:00.511Z,82.66
2017-12-28T04:00:30.833Z,81.74
2017-12-28T04:03:00.557Z,83.36
2017-12-28T04:05:30.468Z,82.39
2017-12-28T04:08:00.566Z,82.63
2017-12-28T04:10:32.174Z,82.33
2017-12-28T04:13:01.965Z,82.27
2017-12-28T04:15:32.130Z,82.17
2017-12-28T04:18:01.832Z,82.41
2017-12-28T04:20:31.541Z,83.17
2017-12-28T04:23:01.713Z,82.66
2017-12-28T04:25:31.491Z,82.25
2017-12-28T04:28:01.262Z,83.41
2017-12-28T04:30:31.436Z,83.09
2017-12-28T04:33:00.858Z,83.92
2017-12-28T04:35:30.968Z,85.92
2017-12-28T04:38:00.997Z,85.33
2017-12-28T04:40:30.862Z,87.24
2017-12-28T04:43:00.650Z,85.43
2017-12-28T04:45:31.553Z,85.80
2017-12-28T04:48:01.321Z,84.44
2017-12-28T04:50:31.040Z,86.52
2017-12-28T04:53:00.866Z,84.19
2017-12-28T04:55:30.658Z,84.27
2017-12-28T04:58:00.328Z,84.51
2017-12-28T05:00:30.346Z,85.31
2017-12-28T05:03:00.221Z,86.21
2017-12-28T05:05:30.073Z,84.46
2017-12-28T05:08:00.137Z,84.89
2017-12-28T05:10:30.026Z,87.03
2017-12-28T05:13:00.015Z,91.13
2017-12-28T05:15:30.278Z,91.19
2017-12-28T05:18:00.118Z,92.38
2017-12-28T05:20:29.777Z,92.20
2017-12-28T05:22:59.624Z,91.03
2017-12-28T05:25:29.544Z,90.89
2017-12-28T05:27:59.338Z,90.91
2017-12-28T05:30:28.967Z,93.01
2017-12-28T05:32:58.926Z,93.62
2017-12-28T05:35:28.663Z,93.66
2017-12-28T05:37:58.131Z,93.75
2017-12-28T05:40:28.201Z,92.09
2017-12-28T05:42:58.576Z,91.64
2017-12-28T05:45:28.535Z,93.31
2017-12-28T05:47:58.542Z,95.01
2017-12-28T05:50:28.333Z,93.48
2017-12-28T05:52:58.029Z,94.31
2017-12-28T05:55:28.077Z,94.48
2017-12-28T05:57:57.825Z,93.52
2017-12-28T06:00:27.612Z,92.95
2017-12-28T06:02:57.741Z,92.42
2017-12-28T06:05:29.123Z,91.62
2017-12-28T06:08:01.059Z,91.59
2017-12-28T06:10:33.320Z,91.80
2017-12-28T06:13:04.738Z,90.96
2017-12-28T06:15:35.725Z,91.14
2017-12-28T06:18:06.571Z,90.58
2017-12-28T06:20:36.398Z,90.33
2017-12-28T06:23:06.513Z,89.58
2017-12-28T06:25:39.785Z,89.81
2017-12-28T06:28:12.137Z,90.08
2017-12-28T06:30:42.020Z,89.25
2017-12-28T06:33:13.944Z,88.78
2017-12-28T06:35:46.168Z,89.11
2017-12-28T06:38:16.305Z,87.98
2017-12-28T06:40:46.594Z,86.93
2017-12-28T06:43:17.051Z,87.12
2017-12-28T06:45:46.721Z,86.92
2017-12-28T06:48:17.967Z,86.73
2017-12-28T06:50:49.115Z,86.65
2017-12-28T06:53:25.527Z,86.72
2017-12-28T06:55:58.792Z,86.89
2017-12-28T06:58:29.953Z,86.66
2017-12-28T07:01:02.581Z,85.56
2017-12-28T07:03:32.789Z,86.10
2017-12-28T07:06:03.511Z,85.32
2017-12-28T07:08:35.817Z,84.84
2017-12-28T07:11:05.774Z,84.85
2017-12-28T07:13:35.557Z,85.58
2017-12-28T07:16:05.479Z,84.94
2017-12-28T07:18:39.689Z,84.36
2017-12-28T07:21:09.710Z,84.17
2017-12-28T07:23:39.745Z,83.98
2017-12-28T07:26:12.074Z,84.12
2017-12-28T07:28:41.892Z,83.19
2017-12-28T07:31:12.811Z,83.18
2017-12-28T07:33:46.309Z,82.69
2017-12-28T07:36:16.323Z,82.58
2017-12-28T07:38:46.420Z,81.79
2017-12-28T07:41:16.116Z,82.07
2017-12-28T07:43:46.187Z,81.58
2017-12-28T07:46:19.310Z,82.17
2017-12-28T07:48:50.172Z,81.89
2017-12-28T07:51:21.363Z,81.94
2017-12-28T07:53:51.729Z,81.73
2017-12-28T07:56:21.679Z,81.39
2017-12-28T07:58:51.135Z,82.14
2017-12-28T08:01:22.609Z,82.02
2017-12-28T08:03:53.457Z,82.14
2017-12-28T08:06:23.529Z,82.89
2017-12-28T08:08:53.755Z,82.56
2017-12-28T08:11:23.369Z,83.30
2017-12-28T08:13:52.961Z,83.04
2017-12-28T08:16:25.139Z,82.06
2017-12-28T08:18:58.237Z,82.12
2017-12-28T08:21:30.252Z,82.60
2017-12-28T08:24:02.296Z,82.14
2017-12-28T08:26:34.585Z,81.53
2017-12-28T08:29:06.189Z,81.20
2017-12-28T08:31:36.318Z,81.26
2017-12-28T08:34:06.117Z,81.83
2017-12-28T08:36:36.262Z,81.29
2017-12-28T08:39:07.351Z,81.00
2017-12-28T08:41:37.639Z,81.32
2017-12-28T08:44:07.536Z,81.40
2017-12-28T08:46:38.390Z,80.95
2017-12-28T08:49:08.254Z,80.46
2017-12-28T08:51:38.465Z,80.44
2017-12-28T08:54:08.083Z,79.84
2017-12-28T08:56:47.319Z,80.10
2017-12-28T08:59:16.905Z,80.48
2017-12-28T09:01:46.560Z,80.04
2017-12-28T09:04:18.085Z,80.88
2017-12-28T09:06:47.595Z,79.98
2017-12-28T09:09:17.353Z,80.68
2017-12-28T09:11:47.491Z,80.27
2017-12-28T09:14:18.277Z,79.60
2017-12-28T09:16:49.440Z,79.65
2017-12-28T09:19:21.067Z,80.43
2017-12-28T09:21:50.966Z,79.80
2017-12-28T09:24:20.681Z,79.90
2017-12-28T09:26:50.569Z,79.57
2017-12-28T09:29:21.352Z,79.63
2017-12-28T09:31:51.688Z,79.88
2017-12-28T09:34:21.217Z,79.86
2017-12-28T09:36:51.311Z,79.63
2017-12-28T09:39:21.788Z,79.77
2017-12-28T09:41:51.446Z,79.25
2017-12-28T09:44:21.030Z,79.05
2017-12-28T09:46:50.820Z,79.46
2017-12-28T09:49:20.979Z,80.02
2017-12-28T09:51:51.274Z,79.92
2017-12-28T09:54:21.437Z,80.72
2017-12-28T09:56:50.959Z,80.76
2017-12-28T09:59:20.636Z,80.27
2017-12-28T10:01:50.625Z,79.89
2017-12-28T10:04:20.246Z,79.38
2017-12-28T10:06:50.110Z,80.53
2017-12-28T10:09:20.805Z,81.78
2017-12-28T10:11:51.193Z,81.98
2017-12-28T10:14:21.158Z,80.97
2017-12-28T10:16:51.574Z,80.70
2017-12-28T10:19:22.014Z,80.88
2017-12-28T10:21:51.888Z,80.65
2017-12-28T10:24:22.251Z,79.39
2017-12-28T10:26:52.951Z,79.30
2017-12-28T10:29:22.934Z,79.92
2017-12-28T10:31:52.727Z,80.56
2017-12-28T10:34:22.442Z,79.79
2017-12-28T10:36:53.062Z,79.46
2017-12-28T10:39:24.319Z,79.41
2017-12-28T10:41:54.141Z,78.98
2017-12-28T10:44:24.297Z,79.26
2017-12-28T10:46:55.015Z,79.10
2017-12-28T10:49:25.566Z,78.06
2017-12-28T10:51:55.380Z,78.03
2017-12-28T10:54:26.962Z,77.47
2017-12-28T10:56:56.556Z,77.72
2017-12-28T10:59:26.837Z,78.00
2017-12-28T11:01:56.756Z,77.23
2017-12-28T11:04:27.358Z,77.06
2017-12-28T11:06:57.442Z,77.68
2017-12-28T11:09:27.360Z,78.13
2017-12-28T11:11:58.434Z,78.17
2017-12-28T11:15:53.068Z,77.82
2017-12-28T11:18:23.506Z,77.87
2017-12-28T11:20:53.988Z,77.91
2017-12-28T11:23:26.700Z,77.33
2017-12-28T11:25:57.768Z,77.28
2017-12-28T11:28:28.199Z,78.05
2017-12-28T11:31:02.630Z,78.16
2017-12-28T11:33:33.119Z,77.04
2017-12-28T11:36:03.321Z,77.29
2017-12-28T11:38:33.007Z,77.83
2017-12-28T11:41:04.568Z,77.82
2017-12-28T11:43:34.277Z,77.56
2017-12-28T11:46:04.633Z,77.33
2017-12-28T11:48:35.434Z,76.73
2017-12-28T11:51:10.235Z,76.39
2017-12-28T11:53:44.466Z,76.21
2017-12-28T11:56:20.386Z,76.20
2017-12-28T11:58:50.809Z,75.37
2017-12-28T12:01:21.282Z,74.65
2017-12-28T12:03:52.399Z,74.94
2017-12-28T12:06:26.613Z,75.00
2017-12-28T12:08:58.110Z,75.25
2017-12-28T12:11:30.591Z,75.23
2017-12-28T12:14:02.933Z,75.27
2017-12-28T12:16:36.882Z,75.66
2017-12-28T12:19:26.170Z,75.88
2017-12-28T12:21:57.020Z,75.64
2017-12-28T12:24:27.829Z,74.82
2017-12-28T12:27:12.132Z,75.27
2017-12-28T12:29:47.635Z,75.42
2017-12-28T12:32:19.690Z,75.05
2017-12-28T12:34:51.233Z,75.72
2017-12-28T12:37:21.872Z,74.00
2017-12-28T12:39:51.533Z,74.55
2017-12-28T12:42:21.129Z,72.82
2017-12-28T12:44:51.222Z,72.57
2017-12-28T12:47:22.089Z,71.74
2017-12-28T12:49:52.212Z,72.45
2017-12-28T12:52:22.134Z,70.49
2017-12-28T12:54:52.336Z,71.03
2017-12-28T12:57:22.831Z,70.72
2017-12-28T12:59:54.974Z,71.07
2017-12-28T13:02:25.628Z,70.99
2017-12-28T13:04:55.898Z,70.51
2017-12-28T13:07:25.751Z,71.26
2017-12-28T13:09:56.610Z,71.69
2017-12-28T13:12:28.849Z,72.51
2017-12-28T13:14:59.196Z,72.22
2017-12-28T13:17:29.057Z,72.24
2017-12-28T13:19:58.744Z,69.71
2017-12-28T13:22:28.547Z,69.97
2017-12-28T13:24:58.575Z,70.25
2017-12-28T13:27:28.158Z,70.21
2017-12-28T13:29:59.714Z,70.66
2017-12-28T13:32:29.832Z,71.00
2017-12-28T13:34:59.426Z,71.52
2017-12-28T13:37:28.886Z,70.24
2017-12-28T13:39:59.038Z,70.85
2017-12-28T13:42:28.559Z,70.09
2017-12-28T13:44:58.394Z,70.58
2017-12-28T13:47:28.359Z,69.99
2017-12-28T13:49:58.504Z,70.78
2017-12-28T13:52:29.454Z,69.33
2017-12-28T13:54:59.385Z,69.29
2017-12-28T13:57:28.821Z,69.79
2017-12-28T13:59:59.567Z,69.06
2017-12-28T14:02:31.659Z,68.72
2017-12-28T14:05:05.454Z,69.36
2017-12-28T14:07:38.436Z,69.67
2017-12-28T14:10:14.496Z,70.00
2017-12-28T14:12:49.603Z,70.93
2017-12-28T14:15:19.362Z,71.04
2017-12-28T14:17:53.154Z,71.30
2017-12-28T14:20:28.033Z,70.97
2017-12-28T14:26:01.239Z,72.15
2017-12-28T14:28:31.285Z,72.19
2017-12-28T14:31:07.685Z,71.55
2017-12-28T14:33:39.480Z,71.18
2017-12-28T14:36:12.032Z,70.93
2017-12-28T14:38:41.724Z,71.45
2017-12-28T14:41:22.447Z,71.18
2017-12-28T14:43:52.990Z,71.75
2017-12-28T14:53:41.526Z,72.05
2017-12-28T14:56:15.992Z,71.77
2017-12-28T15:03:31.421Z,71.66
2017-12-28T15:09:13.313Z,71.32
2017-12-28T15:11:44.899Z,71.61
2017-12-28T15:23:53.720Z,71.84
2017-12-28T15:26:37.238Z,71.99
2017-12-28T15:34:01.193Z,73.19
2017-12-28T15:45:58.954Z,73.12
2017-12-28T16:03:26.546Z,72.78
2017-12-28T16:06:13.593Z,72.54
2017-12-28T16:16:50.126Z,72.57
2017-12-28T16:31:39.089Z,72.31
2017-12-28T16:46:14.102Z,71.29
2017-12-28T16:51:50.338Z,72.13
2017-12-28T16:54:23.967Z,72.26
2017-12-28T16:56:58.163Z,72.69
2017-12-28T16:59:32.184Z,71.92
2017-12-28T17:02:06.941Z,71.93
2017-12-28T17:04:46.499Z,72.20
2017-12-28T17:07:27.254Z,71.90
2017-12-28T17:14:48.229Z,72.29
2017-12-28T17:17:24.282Z,73.45
2017-12-28T17:20:01.999Z,73.66
2017-12-28T17:22:46.035Z,73.13
2017-12-28T17:25:18.635Z,72.68
2017-12-28T17:46:47.498Z,75.28
2017-12-28T17:53:39.897Z,75.03
2017-12-28T17:56:11.124Z,74.46
2017-12-28T18:12:38.525Z,72.53
2017-12-28T18:15:11.622Z,71.83
2017-12-28T18:17:44.294Z,71.76
2017-12-28T18:20:16.930Z,71.59
2017-12-28T18:22:50.419Z,72.22
2017-12-28T18:38:05.794Z,71.46
2017-12-28T18:40:38.690Z,72.29
2017-12-28T18:43:13.301Z,72.09
2017-12-28T18:45:53.337Z,71.72
2017-12-28T18:48:32.874Z,72.22
2017-12-28T18:51:07.636Z,72.19
2017-12-28T18:53:40.335Z,72.62
2017-12-28T18:56:15.907Z,72.53
2017-12-28T18:58:50.414Z,72.33
2017-12-28T19:01:26.342Z,72.37
2017-12-28T19:04:01.106Z,72.36
2017-12-28T19:06:32.650Z,72.35
2017-12-28T19:09:03.600Z,72.06
2017-12-28T19:11:35.850Z,72.25
2017-12-28T19:14:09.790Z,72.32
2017-12-28T19:16:41.999Z,72.08
2017-12-28T19:19:20.302Z,71.50
2017-12-28T19:21:55.420Z,72.17
2017-12-28T19:24:27.081Z,72.25
2017-12-28T19:27:00.422Z,72.60
2017-12-28T19:29:33.667Z,72.10
2017-12-28T19:32:07.890Z,72.23
2017-12-28T19:34:40.558Z,71.57
2017-12-28T19:37:13.279Z,71.74
2017-12-28T19:39:46.463Z,71.57
2017-12-28T19:42:18.216Z,71.19
2017-12-28T19:44:52.369Z,71.33
2017-12-28T19:47:25.670Z,71.14
2017-12-28T19:49:58.703Z,70.63
2017-12-28T19:52:35.387Z,70.60
2017-12-28T19:55:08.066Z,70.92
2017-12-28T19:57:41.687Z,70.65
2017-12-28T20:00:13.580Z,70.53
2017-12-28T20:02:48.969Z,70.22
2017-12-28T20:05:21.439Z,69.54
2017-12-28T20:07:52.545Z,70.17
2017-12-28T20:10:24.267Z,70.52
2017-12-28T20:12:56.272Z,70.07
2017-12-28T20:15:29.370Z,70.07
2017-12-28T20:18:02.376Z,70.56
2017-12-28T20:20:38.073Z,69.90
2017-12-28T20:23:12.093Z,70.85
2017-12-28T20:25:47.260Z,71.37
2017-12-28T20:28:20.046Z,70.96
2017-12-28T20:30:52.170Z,71.08
2017-12-28T20:33:22.712Z,71.29
2017-12-28T20:35:58.938Z,72.13
2017-12-28T20:38:30.816Z,72.21
2017-12-28T20:41:03.117Z,72.29
2017-12-28T20:43:36.992Z,72.76
2017-12-28T20:46:10.059Z,72.26
2017-12-28T20:48:42.614Z,71.91
2017-12-28T20:51:14.005Z,72.33
2017-12-28T20:53:44.127Z,72.25
2017-12-28T20:56:19.969Z,72.43
2017-12-28T20:59:00.157Z,71.93
2017-12-28T21:04:16.869Z,72.01
2017-12-28T21:06:52.066Z,72.43
2017-12-28T21:09:24.248Z,71.47
2017-12-28T21:12:00.132Z,71.50
2017-12-28T21:14:33.932Z,71.22
2017-12-28T21:17:10.295Z,70.92
2017-12-28T21:19:46.097Z,71.74
2017-12-28T21:22:21.162Z,70.51
2017-12-28T21:24:52.105Z,70.39
2017-12-28T21:27:23.380Z,70.84
2017-12-28T21:29:55.219Z,70.53
2017-12-28T21:32:26.637Z,71.01
2017-12-28T21:34:59.382Z,70.33
2017-12-28T21:37:30.598Z,70.94
2017-12-28T21:40:11.674Z,70.82
2017-12-28T21:42:42.949Z,70.31
2017-12-28T21:45:13.263Z,71.04
2017-12-28T21:47:44.736Z,70.94
2017-12-28T21:50:15.191Z,70.67
2017-12-28T21:52:50.003Z,70.53
2017-12-28T21:58:18.756Z,71.88
2017-12-28T22:00:56.844Z,71.25
2017-12-28T22:03:27.553Z,71.56
2017-12-28T22:05:58.276Z,71.18
2017-12-28T22:08:28.577Z,72.00
2017-12-28T22:10:59.374Z,71.19
2017-12-28T22:13:37.294Z,71.63
2017-12-28T22:16:13.772Z,71.58
2017-12-28T22:18:46.226Z,71.66
2017-12-28T22:21:18.337Z,71.97
2017-12-28T22:23:51.399Z,71.69
2017-12-28T22:26:34.228Z,71.99
2017-12-28T22:29:08.135Z,72.19
2017-12-28T22:31:45.164Z,72.57
2017-12-28T22:34:22.156Z,72.24
2017-12-28T22:36:52.754Z,72.35
2017-12-28T22:39:23.492Z,72.44
2017-12-28T22:41:55.508Z,72.37
2017-12-28T22:44:28.179Z,72.65
2017-12-28T22:46:59.065Z,72.65
2017-12-28T22:49:29.641Z,73.12
2017-12-28T22:52:02.579Z,73.23
2017-12-28T22:54:32.690Z,73.37
2017-12-28T22:57:04.923Z,73.18
2017-12-28T22:59:37.925Z,73.58
2017-12-28T23:02:09.199Z,73.66
2017-12-28T23:04:42.832Z,74.00
2017-12-28T23:07:22.961Z,73.98
2017-12-28T23:09:54.723Z,73.98
2017-12-28T23:12:25.817Z,74.05
2017-12-28T23:14:55.817Z,74.03
2017-12-28T23:17:25.823Z,73.87
2017-12-28T23:19:56.879Z,74.08
2017-12-28T23:22:28.714Z,74.15
2017-12-28T23:25:00.566Z,74.13
2017-12-28T23:27:31.726Z,74.49
2017-12-28T23:30:05.075Z,74.63
2017-12-28T23:32:36.558Z,74.59
2017-12-28T23:35:06.520Z,74.66
2017-12-28T23:37:37.972Z,74.86
2017-12-28T23:40:10.891Z,75.01
2017-12-28T23:42:41.676Z,75.22
2017-12-28T23:45:11.403Z,74.87
2017-12-28T23:47:45.478Z,75.12
2017-12-28T23:50:15.538Z,75.09
2017-12-28T23:52:45.200Z,75.49
2017-12-28T23:55:15.024Z,75.00
2017-12-28T23:57:45.223Z,75.07
